Time;durP1;ratioP1;P1;durP2;ratioP2;P2;SDS_P1;SDS_P2;PMS_P1;PMS_P2;Temp;Humidity;BMP_temperature;BMP_pressure;BME280_temperature;BME280_humidity;BME280_pressure;Samples;Min_cycle;Max_cycle;Signal;HPM_P1;HPM_P2
2021/11/01 00:00:17;;;;;;;998.22;931.17;;;;;;;13.63;52.84;99740.50;688612;28;44391;-66
2021/11/01 00:00:38;;;;;;;1004.40;937.22;;;;;;;13.64;53.00;99735.91;687991;28;70158;-66
2021/11/01 00:01:02;;;;;;;1010.67;943.28;;;;;;;13.63;52.82;99737.78;688661;28;45282;-66
2021/11/01 00:01:24;;;;;;;1026.70;958.55;;;;;;;13.60;52.89;99737.41;688099;28;70353;-66
2021/11/01 00:01:45;;;;;;;1027.95;959.67;;;;;;;13.61;53.08;99733.66;688858;28;46258;-66
2021/11/01 00:02:06;;;;;;;996.22;929.00;;;;;;;13.62;52.82;99740.72;689293;28;21299;-66
2021/11/01 00:02:27;;;;;;;997.55;930.45;;;;;;;13.60;52.96;99737.41;689742;28;23452;-66
2021/11/01 00:02:50;;;;;;;991.85;924.95;;;;;;;13.60;52.95;99740.94;689752;28;22260;-66
2021/11/01 00:03:11;;;;;;;999.42;932.30;;;;;;;13.62;52.99;99738.84;688413;28;67250;-66
2021/11/01 00:03:33;;;;;;;994.25;927.25;;;;;;;13.62;52.84;99736.13;688751;28;46317;-66
2021/11/01 00:03:54;;;;;;;995.17;928.17;;;;;;;13.62;52.80;99736.13;689652;28;20909;-66
2021/11/01 00:04:16;;;;;;;1002.50;935.20;;;;;;;13.59;52.86;99739.28;689520;28;23470;-66
2021/11/01 00:04:37;;;;;;;1002.72;935.50;;;;;;;13.56;52.97;99747.03;689034;28;46364;-66
2021/11/01 00:04:59;;;;;;;1000.03;932.92;;;;;;;13.54;52.81;99735.56;689508;28;22390;-66
2021/11/01 00:05:22;;;;;;;992.15;925.35;;;;;;;13.54;53.13;99735.56;687746;28;69460;-66
2021/11/01 00:05:46;;;;;;;994.50;927.65;;;;;;;13.56;53.21;99739.72;688215;28;69425;-66
2021/11/01 00:06:07;;;;;;;999.35;932.30;;;;;;;13.54;52.98;99738.28;687630;28;69406;-66
2021/11/01 00:06:28;;;;;;;1001.75;934.63;;;;;;;13.55;52.97;99727.22;689200;28;45242;-66
2021/11/01 00:06:49;;;;;;;1000.15;933.00;;;;;;;13.56;52.98;99737.03;689063;28;22403;-66
2021/11/01 00:07:13;;;;;;;983.47;916.95;;;;;;;13.57;53.22;99737.84;689309;28;21543;-66
2021/11/01 00:07:34;;;;;;;996.80;929.80;;;;;;;13.58;53.24;99734.91;687905;28;67485;-66
2021/11/01 00:07:55;;;;;;;1002.85;935.45;;;;;;;13.56;52.87;99731.59;689180;28;23708;-66
2021/11/01 00:08:16;;;;;;;1004.53;937.17;;;;;;;13.56;52.97;99737.03;689563;28;22389;-66
2021/11/01 00:08:38;;;;;;;998.63;931.63;;;;;;;13.56;53.10;99730.75;689822;28;22270;-66
2021/11/01 00:09:00;;;;;;;998.88;931.78;;;;;;;13.56;53.12;99731.59;689025;28;46477;-66
2021/11/01 00:09:21;;;;;;;1001.40;934.28;;;;;;;13.56;52.89;99731.59;689212;28;45261;-66
2021/11/01 00:09:42;;;;;;;994.40;927.53;;;;;;;13.58;52.90;99731.38;689679;28;22410;-66
2021/11/01 00:10:05;;;;;;;1001.72;934.53;;;;;;;13.58;52.92;99734.09;689219;28;23350;-66
2021/11/01 00:10:27;;;;;;;997.67;930.63;;;;;;;13.56;52.90;99730.75;688143;28;69970;-66
2021/11/01 00:10:48;;;;;;;983.97;917.45;;;;;;;13.56;53.17;99728.03;688610;28;44357;-66
2021/11/01 00:11:10;;;;;;;995.58;928.63;;;;;;;13.55;52.88;99731.81;689249;28;23450;-66
2021/11/01 00:11:31;;;;;;;993.67;926.78;;;;;;;13.52;53.15;99730.38;688322;28;46309;-66
2021/11/01 00:11:52;;;;;;;986.97;920.38;;;;;;;13.50;53.15;99727.06;689911;28;21534;-66
2021/11/01 00:12:13;;;;;;;988.55;921.85;;;;;;;13.51;52.96;99732.25;689548;28;22246;-66
2021/11/01 00:12:38;;;;;;;992.63;925.80;;;;;;;13.49;52.89;99737.09;689040;28;44659;-66
2021/11/01 00:13:00;;;;;;;993.88;926.92;;;;;;;13.47;53.10;99741.06;687587;28;92308;-66
2021/11/01 00:13:21;;;;;;;999.80;932.67;;;;;;;13.44;53.42;99728.75;688754;28;45258;-66
2021/11/01 00:13:42;;;;;;;1001.90;934.70;;;;;;;13.42;53.21;99735.47;689607;28;21523;-66
2021/11/01 00:14:03;;;;;;;999.70;932.55;;;;;;;13.39;53.17;99731.31;689396;28;23385;-66
2021/11/01 00:14:26;;;;;;;1001.25;934.00;;;;;;;13.37;53.54;99729.84;689227;28;23775;-66
2021/11/01 00:14:47;;;;;;;1003.22;935.88;;;;;;;13.36;53.29;99731.75;688216;28;67493;-66
2021/11/01 00:15:08;;;;;;;1004.30;937.00;;;;;;;13.37;53.41;99733.41;689443;28;22230;-66
2021/11/01 00:15:30;;;;;;;1005.70;938.38;;;;;;;13.36;53.47;99736.34;689749;28;21375;-66
2021/11/01 00:15:51;;;;;;;1003.90;936.63;;;;;;;13.35;53.65;99730.06;688450;28;46680;-66
2021/11/01 00:16:12;;;;;;;994.30;927.35;;;;;;;13.34;53.70;99733.84;691615;28;23705;-66
2021/11/01 00:16:33;;;;;;;981.47;914.97;;;;;;;13.30;53.54;99732.59;692207;28;22392;-66
2021/11/01 00:16:57;;;;;;;990.50;923.65;;;;;;;13.26;53.72;99726.78;691432;28;44022;-66
2021/11/01 00:17:19;;;;;;;1003.25;935.95;;;;;;;13.25;53.57;99733.25;690294;28;68484;-66
2021/11/01 00:17:40;;;;;;;1015.97;948.15;;;;;;;13.26;53.74;99732.22;690898;28;46115;-66
2021/11/01 00:18:01;;;;;;;1011.30;943.60;;;;;;;13.26;53.63;99732.22;691627;28;22167;-66
2021/11/01 00:18:23;;;;;;;1007.70;940.22;;;;;;;13.29;53.76;99730.91;689911;28;22257;-66
2021/11/01 00:18:45;;;;;;;1002.85;935.58;;;;;;;13.27;53.60;99730.31;687564;28;66811;-66
2021/11/01 00:19:06;;;;;;;990.97;924.15;;;;;;;13.23;53.67;99740.78;689271;28;20843;-66
2021/11/01 00:19:27;;;;;;;996.45;929.45;;;;;;;13.21;53.90;99729.31;689287;28;22364;-66
2021/11/01 00:19:48;;;;;;;991.88;925.08;;;;;;;13.22;54.06;99732.88;689246;28;22411;-65
2021/11/01 00:20:12;;;;;;;997.47;930.45;;;;;;;13.22;53.81;99733.69;688099;28;23618;-66
2021/11/01 00:20:33;;;;;;;997.78;930.80;;;;;;;13.19;53.81;99734.13;686966;28;92268;-66
2021/11/01 00:20:54;;;;;;;996.10;929.22;;;;;;;13.13;54.10;99726.84;689350;28;21535;-66
2021/11/01 00:21:16;;;;;;;998.88;931.85;;;;;;;13.13;53.98;99730.41;689842;28;20763;-65
2021/11/01 00:21:37;;;;;;;998.45;931.47;;;;;;;13.16;53.97;99731.84;688696;28;44093;-66
2021/11/01 00:21:59;;;;;;;993.20;926.35;;;;;;;13.13;54.16;99729.56;689984;28;22527;-66
2021/11/01 00:22:21;;;;;;;985.53;918.88;;;;;;;13.15;54.15;99727.50;687787;28;46350;-66
2021/11/01 00:22:42;;;;;;;1004.42;937.08;;;;;;;13.13;53.98;99724.16;688700;28;45230;-66
2021/11/01 00:23:03;;;;;;;1004.35;937.03;;;;;;;13.11;54.05;99724.38;689973;28;21474;-66
2021/11/01 00:23:25;;;;;;;1005.47;938.00;;;;;;;13.09;54.24;99718.34;688627;28;22395;-66
2021/11/01 00:23:46;;;;;;;1002.85;935.63;;;;;;;13.12;54.05;99714.38;688173;28;44384;-66
2021/11/01 00:24:07;;;;;;;1000.85;933.75;;;;;;;13.14;54.00;99714.97;689732;28;23486;-66
2021/11/01 00:24:28;;;;;;;1002.60;935.40;;;;;;;13.15;53.99;99722.06;689897;28;23443;-66
2021/11/01 00:24:51;;;;;;;999.13;932.10;;;;;;;13.17;54.05;99709.13;689760;28;22386;-66
2021/11/01 00:25:12;;;;;;;985.58;919.00;;;;;;;13.14;54.31;99713.09;687195;28;69278;-66
2021/11/01 00:25:33;;;;;;;998.88;931.72;;;;;;;13.13;54.18;99707.88;689203;28;22483;-66
2021/11/01 00:25:55;;;;;;;1004.70;937.30;;;;;;;13.13;54.08;99716.00;689156;28;21458;-66
2021/11/01 00:26:17;;;;;;;1001.15;933.95;;;;;;;13.09;54.30;99714.81;688967;28;45277;-66
2021/11/01 00:26:38;;;;;;;1003.03;935.80;;;;;;;13.10;54.09;99716.44;689186;28;45256;-66
2021/11/01 00:26:59;;;;;;;1007.20;939.78;;;;;;;13.10;54.37;99714.59;689509;28;23434;-66
2021/11/01 00:27:20;;;;;;;1003.33;936.03;;;;;;;13.11;54.09;99716.22;689522;28;21421;-66
2021/11/01 00:27:42;;;;;;;1005.50;938.03;;;;;;;13.09;54.42;99712.91;689109;28;22413;-66
2021/11/01 00:28:05;;;;;;;1003.40;935.97;;;;;;;13.06;54.18;99717.97;688644;28;46316;-66
2021/11/01 00:28:26;;;;;;;984.25;917.55;;;;;;;13.04;54.17;99715.47;687201;28;70574;-66
2021/11/01 00:28:48;;;;;;;999.42;932.13;;;;;;;13.02;54.21;99712.13;689409;28;21555;-66
2021/11/01 00:29:11;;;;;;;999.65;932.33;;;;;;;13.03;54.30;99708.38;688556;28;46342;-66
2021/11/01 00:29:32;;;;;;;1007.38;939.83;;;;;;;13.03;54.30;99711.09;688252;28;69326;-66
2021/11/01 00:29:53;;;;;;;1012.55;944.80;;;;;;;13.03;54.31;99713.78;689878;28;23525;-65
2021/11/01 00:30:15;;;;;;;1009.90;942.30;;;;;;;13.03;54.58;99708.38;689460;28;23391;-66
2021/11/01 00:30:37;;;;;;;1007.35;939.85;;;;;;;13.01;54.43;99704.22;689008;28;44060;-66
2021/11/01 00:30:58;;;;;;;1007.40;939.80;;;;;;;13.00;54.61;99714.22;688325;28;46078;-66
2021/11/01 00:31:19;;;;;;;1003.20;935.58;;;;;;;12.98;54.40;99710.91;689134;28;21412;-66
2021/11/01 00:31:41;;;;;;;996.50;929.30;;;;;;;12.96;54.62;99719.25;689728;28;21524;-66
2021/11/01 00:32:03;;;;;;;1000.35;933.05;;;;;;;12.93;54.78;99711.56;688950;28;45247;-66
2021/11/01 00:32:25;;;;;;;1010.22;942.55;;;;;;;12.94;54.61;99712.38;688622;28;43715;-66
2021/11/01 00:32:47;;;;;;;1006.38;938.95;;;;;;;12.95;54.78;99712.16;688631;28;46194;-66
2021/11/01 00:33:08;;;;;;;1001.63;934.30;;;;;;;12.95;54.58;99711.34;688713;28;46359;-66
2021/11/01 00:33:30;;;;;;;1006.47;938.97;;;;;;;12.95;54.58;99717.59;689740;28;22380;-66
2021/11/01 00:33:51;;;;;;;1009.58;941.97;;;;;;;12.97;54.53;99710.06;688596;28;46316;-66
2021/11/01 00:34:12;;;;;;;1009.80;942.13;;;;;;;12.98;54.78;99708.19;689875;28;21522;-66
2021/11/01 00:34:33;;;;;;;1005.05;937.55;;;;;;;12.99;54.62;99709.84;689816;28;24168;-66
2021/11/01 00:34:54;;;;;;;1015.38;947.58;;;;;;;12.98;54.64;99706.31;689751;28;22361;-66
2021/11/01 00:35:18;;;;;;;1014.45;946.75;;;;;;;12.98;54.67;99708.19;688952;28;21365;-66
2021/11/01 00:35:39;;;;;;;1013.15;945.50;;;;;;;13.00;54.65;99706.09;687197;28;91482;-66
2021/11/01 00:36:01;;;;;;;1004.00;936.63;;;;;;;13.01;54.51;99696.06;689539;28;20832;-66
2021/11/01 00:36:22;;;;;;;1006.70;939.28;;;;;;;13.01;54.69;99702.34;689410;28;23491;-66
2021/11/01 00:36:43;;;;;;;999.38;932.17;;;;;;;13.03;54.39;99704.84;688817;28;43673;-66
2021/11/01 00:37:05;;;;;;;994.00;926.90;;;;;;;13.04;54.68;99703.78;689503;28;22389;-66
2021/11/01 00:37:27;;;;;;;1003.45;936.08;;;;;;;13.02;54.47;99711.31;688914;28;45264;-66
2021/11/01 00:37:48;;;;;;;1002.92;935.45;;;;;;;13.00;54.69;99705.28;688058;28;45291;-66
2021/11/01 00:38:10;;;;;;;998.70;931.45;;;;;;;12.99;54.50;99701.72;689651;28;20864;-66
2021/11/01 00:38:31;;;;;;;1007.03;939.50;;;;;;;13.00;54.36;99706.09;688896;28;46337;-66
2021/11/01 00:38:53;;;;;;;1000.83;933.58;;;;;;;13.01;54.43;99705.06;689459;28;23520;-66
2021/11/01 00:39:14;;;;;;;1001.05;933.80;;;;;;;13.00;54.61;99705.28;688790;28;45248;-66
2021/11/01 00:39:36;;;;;;;1010.67;942.97;;;;;;;12.98;54.64;99702.78;689890;28;22431;-66
2021/11/01 00:39:59;;;;;;;1002.97;935.63;;;;;;;12.95;54.42;99704.03;688734;28;46720;-66
2021/11/01 00:40:20;;;;;;;1003.35;936.03;;;;;;;12.96;54.69;99702.16;687509;28;69367;-66
2021/11/01 00:40:42;;;;;;;1010.70;943.05;;;;;;;12.95;54.43;99704.03;689572;28;23506;-66
2021/11/01 00:41:04;;;;;;;1010.67;942.92;;;;;;;12.94;54.71;99701.53;688435;28;45224;-66
2021/11/01 00:41:25;;;;;;;1008.50;940.88;;;;;;;12.95;54.77;99698.63;689408;28;21546;-66
2021/11/01 00:41:46;;;;;;;1012.55;944.75;;;;;;;12.96;54.53;99708.41;688800;28;46257;-66
2021/11/01 00:42:07;;;;;;;1012.78;944.95;;;;;;;12.98;54.57;99703.59;689451;28;22408;-66
2021/11/01 00:42:29;;;;;;;1013.58;945.67;;;;;;;13.00;54.73;99702.56;689481;28;22395;-66
2021/11/01 00:42:50;;;;;;;1017.17;949.17;;;;;;;13.01;54.50;99698.78;688981;28;44155;-66
2021/11/01 00:43:11;;;;;;;1022.40;954.20;;;;;;;13.00;54.68;99699.84;689836;28;22214;-66
2021/11/01 00:43:34;;;;;;;1011.85;944.05;;;;;;;12.98;54.46;99702.78;689783;28;20771;-66
2021/11/01 00:43:55;;;;;;;1025.88;957.38;;;;;;;12.93;54.73;99694.47;690069;28;67361;-66
2021/11/01 00:44:16;;;;;;;1026.63;957.92;;;;;;;12.94;54.49;99701.53;689235;28;24682;-66
2021/11/01 00:44:38;;;;;;;1024.25;955.75;;;;;;;12.93;54.75;99699.88;689407;28;22526;-66
2021/11/01 00:45:00;;;;;;;1014.03;945.95;;;;;;;12.91;54.52;99702.81;689266;28;23492;-66
2021/11/01 00:45:21;;;;;;;1020.13;951.88;;;;;;;12.88;54.84;99700.53;687854;28;69427;-66
2021/11/01 00:45:42;;;;;;;1024.32;955.83;;;;;;;12.86;54.78;99693.69;689367;28;22223;-66
2021/11/01 00:46:03;;;;;;;1027.60;959.00;;;;;;;12.89;54.77;99698.66;688224;28;22407;-66
2021/11/01 00:46:25;;;;;;;1026.45;957.92;;;;;;;12.89;54.85;99698.66;693358;28;1504;-66
2021/11/01 00:46:46;;;;;;;1026.57;958.03;;;;;;;12.87;54.95;99696.19;691779;28;47173;-66
2021/11/01 00:47:10;;;;;;;1026.93;958.38;;;;;;;12.87;54.99;99696.19;691846;28;22428;-66
2021/11/01 00:47:31;;;;;;;1015.60;947.50;;;;;;;12.89;54.98;99693.25;689920;28;92049;-65
2021/11/01 00:47:53;;;;;;;1024.55;956.10;;;;;;;12.89;54.95;99701.38;691835;28;23417;-66
2021/11/01 00:48:15;;;;;;;1017.75;949.60;;;;;;;12.89;55.05;99691.34;691814;28;44386;-66
2021/11/01 00:48:36;;;;;;;1017.35;949.25;;;;;;;12.87;54.79;99696.19;691435;28;44374;-66
2021/11/01 00:48:58;;;;;;;1024.38;956.08;;;;;;;12.90;55.03;99697.59;692416;28;23894;-66
2021/11/01 00:49:19;;;;;;;1023.45;955.13;;;;;;;12.88;54.75;99695.09;690564;28;44417;-66
2021/11/01 00:49:41;;;;;;;1023.60;955.22;;;;;;;12.88;55.00;99688.88;692262;28;23384;-66
2021/11/01 00:50:04;;;;;;;1009.88;941.92;;;;;;;12.86;54.69;99691.78;690740;28;45266;-66
2021/11/01 00:50:30;;;;;;;1015.17;947.10;;;;;;;12.84;54.88;99695.78;690662;28;69215;-66
2021/11/01 00:50:51;;;;;;;1021.50;953.17;;;;;;;12.79;55.04;99686.41;683763;28;136553;-66
2021/11/01 00:51:13;;;;;;;1019.17;950.90;;;;;;;12.80;54.92;99692.66;688433;28;22392;-65
2021/11/01 00:51:38;;;;;;;1016.15;948.15;;;;;;;12.83;54.92;99694.94;687456;28;46402;-66
2021/11/01 00:52:00;;;;;;;1018.95;950.78;;;;;;;12.86;54.86;99685.56;684843;28;114754;-66
2021/11/01 00:52:25;;;;;;;1020.53;952.38;;;;;;;12.87;55.03;99690.75;687063;28;46302;-66
2021/11/01 00:52:47;;;;;;;1011.38;943.65;;;;;;;12.86;55.22;99689.09;687516;28;115964;-66
2021/11/01 00:53:08;;;;;;;1004.10;936.50;;;;;;;12.85;55.19;99684.69;691242;28;46546;-66
2021/11/01 00:53:31;;;;;;;1007.95;940.35;;;;;;;12.85;54.91;99694.72;692487;28;22384;-66
2021/11/01 00:53:53;;;;;;;1007.92;940.42;;;;;;;12.80;54.94;99693.50;690374;28;69382;-66
2021/11/01 00:54:14;;;;;;;1004.60;937.22;;;;;;;12.85;54.98;99692.00;692164;28;21256;-66
2021/11/01 00:54:36;;;;;;;1004.85;937.53;;;;;;;12.84;55.34;99687.66;692612;28;21549;-66
2021/11/01 00:54:59;;;;;;;1002.08;934.92;;;;;;;12.84;54.98;99685.78;687549;28;68927;-66
2021/11/01 00:55:23;;;;;;;993.28;926.47;;;;;;;12.81;55.20;99691.63;687686;28;68307;-66
2021/11/01 00:55:49;;;;;;;1000.58;933.45;;;;;;;12.81;54.99;99697.03;686565;28;93153;-65
2021/11/01 00:56:11;;;;;;;999.97;932.87;;;;;;;12.80;55.37;99692.66;684438;28;156048;-66
2021/11/01 00:56:32;;;;;;;997.28;930.33;;;;;;;12.78;55.35;99698.28;688659;28;46361;-66
2021/11/01 00:56:53;;;;;;;997.43;930.50;;;;;;;12.75;55.12;99696.03;689745;28;21527;-66
2021/11/01 00:57:14;;;;;;;1012.58;945.03;;;;;;;12.74;55.26;99697.09;688791;28;47605;-66
2021/11/01 00:57:36;;;;;;;1010.40;942.80;;;;;;;12.73;55.43;99691.88;689322;28;24895;-66
2021/11/01 00:57:58;;;;;;;1005.80;938.35;;;;;;;12.75;55.18;99685.19;689261;28;45260;-66
2021/11/01 00:58:20;;;;;;;995.03;928.03;;;;;;;12.77;55.22;99690.38;691358;28;22193;-65
2021/11/01 00:58:42;;;;;;;1000.75;933.63;;;;;;;12.78;55.17;99692.88;690776;28;69302;-66
2021/11/01 00:59:05;;;;;;;1016.15;948.45;;;;;;;12.79;55.33;99688.31;691542;28;32590;-66
2021/11/01 00:59:26;;;;;;;1013.30;945.63;;;;;;;12.79;55.48;99693.72;691355;28;44563;-66
2021/11/01 00:59:47;;;;;;;1011.15;943.55;;;;;;;12.77;55.28;99690.38;692162;28;21509;-66
2021/11/01 01:00:10;;;;;;;1010.08;942.47;;;;;;;12.76;55.51;99689.56;690844;28;46452;-65
2021/11/01 01:00:31;;;;;;;1004.42;937.03;;;;;;;12.75;55.19;99698.72;690580;28;68418;-66
2021/11/01 01:00:53;;;;;;;1008.15;940.65;;;;;;;12.74;55.24;99694.38;691534;28;23464;-65
2021/11/01 01:01:14;;;;;;;998.45;931.33;;;;;;;12.72;55.45;99698.34;691562;28;23426;-65
2021/11/01 01:01:37;;;;;;;1005.47;938.08;;;;;;;12.70;55.35;99690.44;691615;28;46333;-66
2021/11/01 01:01:58;;;;;;;1007.67;940.20;;;;;;;12.69;55.65;99683.34;691478;28;46254;-66
2021/11/01 01:02:19;;;;;;;995.13;928.10;;;;;;;12.71;55.58;99691.25;691115;28;43658;-66
2021/11/01 01:02:41;;;;;;;1008.40;940.80;;;;;;;12.68;55.39;99688.97;691323;28;23714;-66
2021/11/01 01:03:02;;;;;;;1012.47;944.78;;;;;;;12.66;55.45;99691.91;691240;28;44154;-66
2021/11/01 01:03:23;;;;;;;1010.67;942.97;;;;;;;12.62;55.54;99691.50;691718;28;23350;-66
2021/11/01 01:03:45;;;;;;;1010.42;942.72;;;;;;;12.61;55.58;99695.25;692402;28;22115;-66
2021/11/01 01:04:06;;;;;;;1007.17;939.67;;;;;;;12.60;55.79;99690.06;691521;28;46383;-66
2021/11/01 01:04:28;;;;;;;1008.50;941.05;;;;;;;12.56;55.65;99689.66;692985;28;1050;-66
2021/11/01 01:04:49;;;;;;;1009.97;942.40;;;;;;;12.55;56.00;99695.28;690507;28;45344;-66
2021/11/01 01:05:10;;;;;;;1009.38;941.90;;;;;;;12.53;56.07;99694.69;691876;28;23402;-66
2021/11/01 01:05:34;;;;;;;1001.63;934.45;;;;;;;12.53;55.74;99692.81;692139;28;22882;-66
2021/11/01 01:05:58;;;;;;;1006.55;939.03;;;;;;;12.51;56.13;99685.97;686031;28;92095;-66
2021/11/01 01:06:19;;;;;;;1012.97;945.20;;;;;;;12.48;55.88;99689.09;687814;28;70231;-66
2021/11/01 01:06:40;;;;;;;1011.95;944.25;;;;;;;12.46;56.29;99688.47;685033;28;45365;-66
2021/11/01 01:07:02;;;;;;;1009.83;942.20;;;;;;;12.42;55.99;99686.19;685618;28;23440;-65
2021/11/01 01:07:23;;;;;;;1006.10;938.55;;;;;;;12.43;56.30;99690.56;685299;28;46454;-66
2021/11/01 01:07:44;;;;;;;1017.85;949.65;;;;;;;12.41;56.29;99687.25;685664;28;21533;-66
2021/11/01 01:08:05;;;;;;;1019.97;951.72;;;;;;;12.40;56.21;99690.16;687984;28;22539;-66
2021/11/01 01:08:27;;;;;;;1018.13;950.13;;;;;;;12.41;56.21;99691.81;688637;28;18655;-66
2021/11/01 01:08:48;;;;;;;1023.20;955.00;;;;;;;12.42;56.39;99685.34;691658;28;44144;-66
2021/11/01 01:09:10;;;;;;;1021.42;953.22;;;;;;;12.41;56.40;99687.25;692304;28;22463;-66
2021/11/01 01:09:31;;;;;;;1017.30;949.33;;;;;;;12.40;56.62;99684.75;692350;28;22593;-65
2021/11/01 01:09:53;;;;;;;1018.88;950.88;;;;;;;12.39;56.47;99683.09;692502;28;22409;-66
2021/11/01 01:10:14;;;;;;;1012.80;945.08;;;;;;;12.38;56.43;99681.41;690529;28;46129;-66
2021/11/01 01:10:35;;;;;;;1008.60;941.00;;;;;;;12.37;56.42;99674.34;691403;28;45374;-66
2021/11/01 01:10:57;;;;;;;1010.35;942.67;;;;;;;12.35;56.69;99679.13;691933;28;22363;-66
2021/11/01 01:11:18;;;;;;;1007.72;940.13;;;;;;;12.34;56.65;99683.72;692090;28;22383;-66
2021/11/01 01:11:40;;;;;;;1002.37;935.07;;;;;;;12.35;56.50;99682.69;691440;28;23273;-66
2021/11/01 01:12:01;;;;;;;1000.88;933.67;;;;;;;12.33;56.79;99684.75;691658;28;46184;-66
2021/11/01 01:12:23;;;;;;;1015.17;947.33;;;;;;;12.34;56.64;99678.31;687576;28;46454;-66
2021/11/01 01:12:45;;;;;;;1016.92;949.03;;;;;;;12.35;56.71;99674.56;689163;28;23473;-66
2021/11/01 01:13:07;;;;;;;1015.10;947.28;;;;;;;12.36;56.51;99684.31;688578;28;46354;-66
2021/11/01 01:13:34;;;;;;;1015.78;947.88;;;;;;;12.37;56.68;99679.75;687631;28;67126;-66
2021/11/01 01:13:56;;;;;;;1013.33;945.53;;;;;;;12.35;56.75;99677.28;684995;28;138285;-66
2021/11/01 01:14:26;;;;;;;1011.08;943.38;;;;;;;12.34;56.85;99675.59;690035;28;44349;-66
2021/11/01 01:14:53;;;;;;;1016.33;948.42;;;;;;;12.37;56.79;99682.47;687400;28;159150;-65
2021/11/01 01:15:19;;;;;;;1014.60;946.78;;;;;;;12.35;56.73;99682.69;687521;28;137895;-65
2021/11/01 01:15:46;;;;;;;1016.83;948.90;;;;;;;12.35;56.69;99676.41;687769;28;138025;-66
2021/11/01 01:16:11;;;;;;;1018.88;950.88;;;;;;;12.33;56.76;99679.34;687226;28;136425;-66
2021/11/01 01:16:38;;;;;;;1010.00;942.35;;;;;;;12.32;56.68;99679.56;688784;28;116416;-66
2021/11/01 01:17:01;;;;;;;1020.67;952.67;;;;;;;12.30;56.95;99682.47;688073;28;139184;-66
2021/11/01 01:17:22;;;;;;;1020.42;952.40;;;;;;;12.30;56.83;99671.66;691236;28;46352;-66
2021/11/01 01:17:45;;;;;;;1017.90;949.78;;;;;;;12.31;56.56;99673.31;691107;28;45232;-66
2021/11/01 01:18:12;;;;;;;1017.38;949.25;;;;;;;12.31;56.62;99677.91;691231;28;46374;-65
2021/11/01 01:18:36;;;;;;;1014.00;946.20;;;;;;;12.29;56.89;99674.56;687895;28;62792;-66
2021/11/01 01:18:59;;;;;;;1023.60;955.38;;;;;;;12.31;56.90;99667.09;687468;28;69215;-66
2021/11/01 01:19:23;;;;;;;1019.63;951.58;;;;;;;12.31;56.58;99678.75;686634;28;89714;-66
2021/11/01 01:19:50;;;;;;;1021.33;953.13;;;;;;;12.29;56.91;99677.28;687198;28;90385;-66
2021/11/01 01:20:14;;;;;;;1025.57;957.17;;;;;;;12.26;56.70;99671.25;684705;28;136200;-66
2021/11/01 01:20:36;;;;;;;1018.83;950.80;;;;;;;12.24;56.80;99670.66;690869;28;51828;-66
2021/11/01 01:21:00;;;;;;;1018.30;950.30;;;;;;;12.23;56.99;99671.69;691139;28;45211;-66
2021/11/01 01:22:21;;;;;;;1014.55;946.60;;;;;;;12.26;56.74;99665.03;688225;28;136842;-66
2021/11/01 01:22:43;;;;;;;1021.42;953.15;;;;;;;12.31;56.71;99665.19;688352;28;137483;-66
2021/11/01 01:23:04;;;;;;;1020.80;952.63;;;;;;;12.33;56.67;99659.56;692362;28;21266;-66
2021/11/01 01:23:26;;;;;;;1026.45;957.95;;;;;;;12.36;56.82;99664.56;692236;28;24289;-66
2021/11/01 01:23:47;;;;;;;1024.55;956.20;;;;;;;12.39;56.84;99664.94;690788;28;69281;-65
2021/11/01 01:24:09;;;;;;;1024.10;955.80;;;;;;;12.42;56.42;99666.41;691960;28;22408;-65
2021/11/01 01:24:30;;;;;;;1018.83;950.88;;;;;;;12.45;56.67;99665.97;692491;28;22372;-66
2021/11/01 01:24:52;;;;;;;1022.42;954.25;;;;;;;12.48;56.36;99659.31;691582;28;46311;-66
2021/11/01 01:25:20;;;;;;;1027.25;958.78;;;;;;;12.53;56.11;99663.00;690181;28;46282;-66
2021/11/01 01:25:47;;;;;;;1029.47;960.97;;;;;;;12.55;56.05;99660.91;684867;28;137193;-65
2021/11/01 01:26:14;;;;;;;1022.15;953.90;;;;;;;12.54;56.29;99656.56;677139;28;138907;-66
2021/11/01 01:26:36;;;;;;;1023.05;954.85;;;;;;;12.54;56.00;99647.59;679925;28;115866;-65
2021/11/01 01:26:57;;;;;;;1024.63;956.42;;;;;;;12.54;55.98;99658.41;681407;28;68345;-66
2021/11/01 01:27:19;;;;;;;1023.38;955.15;;;;;;;12.56;55.90;99654.44;682977;28;22384;-66
2021/11/01 01:27:40;;;;;;;1024.82;956.47;;;;;;;12.56;56.05;99664.47;683741;28;23443;-66
2021/11/01 01:28:02;;;;;;;1022.67;954.38;;;;;;;12.55;55.90;99649.25;688506;28;24631;-66
2021/11/01 01:28:24;;;;;;;1018.35;950.35;;;;;;;12.55;55.93;99660.91;690283;28;69278;-66
2021/11/01 01:28:46;;;;;;;1023.45;955.25;;;;;;;12.56;56.14;99653.63;691537;28;44166;-66
2021/11/01 01:29:11;;;;;;;1030.30;961.88;;;;;;;12.54;56.21;99653.00;692185;28;23397;-66
2021/11/01 01:29:33;;;;;;;1027.45;959.15;;;;;;;12.56;56.24;99648.22;688467;28;136154;-66
2021/11/01 01:29:54;;;;;;;1024.40;956.15;;;;;;;12.57;55.89;99656.13;691492;28;46539;-65
2021/11/01 01:30:15;;;;;;;1028.47;960.00;;;;;;;12.57;55.91;99656.13;692010;28;23419;-66
2021/11/01 01:30:38;;;;;;;1038.22;969.38;;;;;;;12.57;55.93;99656.13;692278;28;23461;-66
2021/11/01 01:31:01;;;;;;;1045.38;976.13;;;;;;;12.58;56.00;99655.06;689885;28;69221;-66
2021/11/01 01:31:22;;;;;;;1041.90;972.85;;;;;;;12.60;55.87;99650.28;691459;28;45266;-66
2021/11/01 01:31:43;;;;;;;1041.38;972.35;;;;;;;12.59;55.99;99654.03;692410;28;22617;-66
2021/11/01 01:32:06;;;;;;;1036.90;968.03;;;;;;;12.57;55.73;99657.97;690851;28;46320;-66
2021/11/01 01:32:27;;;;;;;1029.40;960.80;;;;;;;12.51;55.81;99654.28;690728;28;69329;-65
2021/11/01 01:32:49;;;;;;;997.83;930.38;;;;;;;12.51;55.91;99659.69;692460;28;21300;-66
2021/11/01 01:33:11;;;;;;;1015.30;947.30;;;;;;;12.55;55.84;99649.25;692020;28;23472;-66
2021/11/01 01:33:32;;;;;;;1012.85;945.05;;;;;;;12.55;56.19;99660.09;690755;28;46320;-66
2021/11/01 01:33:53;;;;;;;1010.85;943.15;;;;;;;12.54;55.88;99661.13;691424;28;46346;-65
2021/11/01 01:34:14;;;;;;;1015.45;947.55;;;;;;;12.54;56.11;99658.41;692041;28;22405;-66
2021/11/01 01:34:36;;;;;;;1012.22;944.47;;;;;;;12.51;56.09;99654.28;691275;28;23424;-66
2021/11/01 01:34:57;;;;;;;1009.90;941.88;;;;;;;12.50;56.20;99659.91;689773;28;46326;-66
2021/11/01 01:35:19;;;;;;;1012.95;945.20;;;;;;;12.48;56.04;99659.31;690792;28;24334;-66
2021/11/01 01:35:42;;;;;;;1011.15;943.55;;;;;;;12.45;56.35;99655.16;692213;28;22512;-66
2021/11/01 01:36:03;;;;;;;1000.03;932.83;;;;;;;12.42;56.01;99661.00;690252;28;69452;-66
2021/11/01 01:36:26;;;;;;;1005.00;937.65;;;;;;;12.41;56.31;99656.59;693068;28;6166;-65
2021/11/01 01:36:47;;;;;;;1005.33;937.80;;;;;;;12.39;56.18;99656.00;690261;28;69401;-65
2021/11/01 01:37:08;;;;;;;1010.45;942.67;;;;;;;12.38;56.34;99655.19;691498;28;23055;-65
2021/11/01 01:37:29;;;;;;;1020.83;952.72;;;;;;;12.36;56.60;99662.66;691841;28;23446;-66
2021/11/01 01:37:53;;;;;;;1018.45;950.35;;;;;;;12.35;56.54;99660.19;691393;28;23480;-66
2021/11/01 01:38:14;;;;;;;1015.40;947.40;;;;;;;12.36;56.46;99659.13;689754;28;69414;-66
2021/11/01 01:38:36;;;;;;;1015.00;947.00;;;;;;;12.35;56.40;99661.03;691315;28;48587;-66
2021/11/01 01:38:57;;;;;;;1018.47;950.33;;;;;;;12.33;56.62;99660.38;692251;28;21531;-66
2021/11/01 01:39:19;;;;;;;1021.08;952.88;;;;;;;12.32;56.72;99655.19;692056;28;22402;-65
2021/11/01 01:39:40;;;;;;;1019.35;951.35;;;;;;;12.30;56.53;99651.88;691518;28;46352;-66
2021/11/01 01:40:02;;;;;;;1016.20;948.20;;;;;;;12.29;56.73;99652.91;691618;28;21541;-66